Worthville, Kentucky
Current Conditions -  °F | °C
As of 9:53 PM on Sunday 23 Nov 2014 (Local Time) from KFFT Reporting Station
Overcast Overcast  
Wind Chill: 57°   Ceiling: 2800
Heat Index: 57°   Visibility: 10mi
Dew Point: 54°   Wind: 14mph
Humidity: 89%   Direction: 160°SSE
Pressure: 29.34"   Gusts: 22mph
Location:  38.61°N, 85.07°W
Report Text: KFFT 240253Z AUTO 16012G19KT 10SM BKN028 BKN036 OVC070 14/12 A2934 RMK AO2 SLP932 60012 T01390122 58019
Loading
Personal Weather Stations






























Interactive Weather Map New forecast layout! Learn more

10-Day Weather Forecast

Advertisements
Track Severe Weather on mobile